sensor_id;sensor_type;location;lat;lon;timestamp;temperature;humidity
38456;DHT22;24237;50.106;20.014;2023-04-24T00:01:47;15.40;93.90
38456;DHT22;24237;50.106;20.014;2023-04-24T00:04:13;15.60;94.80
38456;DHT22;24237;50.106;20.014;2023-04-24T00:06:39;15.50;97.80
38456;DHT22;24237;50.106;20.014;2023-04-24T00:09:11;15.50;99.90
38456;DHT22;24237;50.106;20.014;2023-04-24T00:11:36;15.40;99.90
38456;DHT22;24237;50.106;20.014;2023-04-24T00:14:02;15.30;99.90
38456;DHT22;24237;50.106;20.014;2023-04-24T00:16:28;15.10;99.90
38456;DHT22;24237;50.106;20.014;2023-04-24T00:18:54;14.90;99.90
38456;DHT22;24237;50.106;20.014;2023-04-24T00:21:20;14.80;99.90
38456;DHT22;24237;50.106;20.014;2023-04-24T00:23:47;14.70;99.90
38456;DHT22;24237;50.106;20.014;2023-04-24T00:26:13;14.60;99.90
38456;DHT22;24237;50.106;20.014;2023-04-24T00:28:39;14.50;99.90
38456;DHT22;24237;50.106;20.014;2023-04-24T00:31:04;14.60;99.90
38456;DHT22;24237;50.106;20.014;2023-04-24T00:33:30;14.50;99.90
38456;DHT22;24237;50.106;20.014;2023-04-24T00:35:56;14.50;99.90
38456;DHT22;24237;50.106;20.014;2023-04-24T00:38:22;14.50;99.90
38456;DHT22;24237;50.106;20.014;2023-04-24T00:40:48;14.80;99.90
38456;DHT22;24237;50.106;20.014;2023-04-24T00:43:15;14.80;99.90
38456;DHT22;24237;50.106;20.014;2023-04-24T00:45:40;15.10;99.90
38456;DHT22;24237;50.106;20.014;2023-04-24T00:48:06;15.00;99.90
38456;DHT22;24237;50.106;20.014;2023-04-24T00:50:32;14.90;99.90
38456;DHT22;24237;50.106;20.014;2023-04-24T00:52:58;14.90;99.90
38456;DHT22;24237;50.106;20.014;2023-04-24T00:55:24;14.70;99.90
38456;DHT22;24237;50.106;20.014;2023-04-24T00:57:51;14.60;99.90
38456;DHT22;24237;50.106;20.014;2023-04-24T01:00:16;14.40;99.90
38456;DHT22;24237;50.106;20.014;2023-04-24T01:02:44;14.20;99.90
38456;DHT22;24237;50.106;20.014;2023-04-24T01:05:11;14.10;99.90
38456;DHT22;24237;50.106;20.014;2023-04-24T01:07:38;13.90;99.90
38456;DHT22;24237;50.106;20.014;2023-04-24T01:10:05;13.90;99.90
38456;DHT22;24237;50.106;20.014;2023-04-24T01:12:31;13.90;99.90
38456;DHT22;24237;50.106;20.014;2023-04-24T01:14:57;13.90;99.90
38456;DHT22;24237;50.106;20.014;2023-04-24T01:17:23;13.80;99.90
38456;DHT22;24237;50.106;20.014;2023-04-24T01:19:49;13.80;99.90
38456;DHT22;24237;50.106;20.014;2023-04-24T01:22:15;13.80;99.90
38456;DHT22;24237;50.106;20.014;2023-04-24T01:24:42;13.70;99.90
38456;DHT22;24237;50.106;20.014;2023-04-24T01:27:08;13.70;99.90
38456;DHT22;24237;50.106;20.014;2023-04-24T01:29:35;13.70;99.90
38456;DHT22;24237;50.106;20.014;2023-04-24T01:32:02;13.80;99.90
38456;DHT22;24237;50.106;20.014;2023-04-24T01:34:27;13.90;99.90
38456;DHT22;24237;50.106;20.014;2023-04-24T01:36:53;13.90;99.90
38456;DHT22;24237;50.106;20.014;2023-04-24T01:39:19;13.70;99.90
38456;DHT22;24237;50.106;20.014;2023-04-24T01:41:46;13.60;99.90
38456;DHT22;24237;50.106;20.014;2023-04-24T01:44:12;13.50;99.90
38456;DHT22;24237;50.106;20.014;2023-04-24T01:46:38;13.40;99.90
38456;DHT22;24237;50.106;20.014;2023-04-24T01:49:03;13.30;99.90
38456;DHT22;24237;50.106;20.014;2023-04-24T01:51:29;13.20;99.90
38456;DHT22;24237;50.106;20.014;2023-04-24T01:53:55;13.10;99.90
38456;DHT22;24237;50.106;20.014;2023-04-24T01:56:22;13.00;99.90
38456;DHT22;24237;50.106;20.014;2023-04-24T01:58:49;13.10;99.90
38456;DHT22;24237;50.106;20.014;2023-04-24T02:01:18;13.10;99.90
38456;DHT22;24237;50.106;20.014;2023-04-24T02:03:44;13.10;99.90
38456;DHT22;24237;50.106;20.014;2023-04-24T02:06:10;13.10;99.90
38456;DHT22;24237;50.106;20.014;2023-04-24T02:08:35;13.10;99.90
38456;DHT22;24237;50.106;20.014;2023-04-24T02:11:01;13.00;99.90
38456;DHT22;24237;50.106;20.014;2023-04-24T02:13:27;12.90;99.90
38456;DHT22;24237;50.106;20.014;2023-04-24T02:15:53;13.00;99.90
38456;DHT22;24237;50.106;20.014;2023-04-24T02:18:19;13.00;99.90
38456;DHT22;24237;50.106;20.014;2023-04-24T02:20:45;13.00;99.90
38456;DHT22;24237;50.106;20.014;2023-04-24T02:23:11;13.10;99.90
38456;DHT22;24237;50.106;20.014;2023-04-24T02:25:36;13.00;99.90
38456;DHT22;24237;50.106;20.014;2023-04-24T02:28:02;13.00;99.90
38456;DHT22;24237;50.106;20.014;2023-04-24T02:30:28;13.00;99.90
38456;DHT22;24237;50.106;20.014;2023-04-24T02:32:54;13.00;99.90
38456;DHT22;24237;50.106;20.014;2023-04-24T02:35:20;13.10;99.90
38456;DHT22;24237;50.106;20.014;2023-04-24T02:37:46;13.00;99.90
38456;DHT22;24237;50.106;20.014;2023-04-24T02:40:11;13.00;99.90
38456;DHT22;24237;50.106;20.014;2023-04-24T02:42:37;13.00;99.90
38456;DHT22;24237;50.106;20.014;2023-04-24T02:45:03;12.90;99.90
38456;DHT22;24237;50.106;20.014;2023-04-24T02:47:29;13.00;99.90
38456;DHT22;24237;50.106;20.014;2023-04-24T02:49:54;13.20;99.90
38456;DHT22;24237;50.106;20.014;2023-04-24T02:52:20;12.70;99.90
38456;DHT22;24237;50.106;20.014;2023-04-24T02:54:45;12.20;99.90
38456;DHT22;24237;50.106;20.014;2023-04-24T02:57:11;12.20;99.90
38456;DHT22;24237;50.106;20.014;2023-04-24T02:59:37;12.10;99.90
38456;DHT22;24237;50.106;20.014;2023-04-24T03:02:02;12.00;99.90
38456;DHT22;24237;50.106;20.014;2023-04-24T03:04:28;12.00;99.90
38456;DHT22;24237;50.106;20.014;2023-04-24T03:06:54;12.10;99.90
38456;DHT22;24237;50.106;20.014;2023-04-24T03:09:20;12.20;99.90
38456;DHT22;24237;50.106;20.014;2023-04-24T03:11:46;12.20;99.90
38456;DHT22;24237;50.106;20.014;2023-04-24T03:14:12;12.30;99.90
38456;DHT22;24237;50.106;20.014;2023-04-24T03:16:38;12.30;99.90
38456;DHT22;24237;50.106;20.014;2023-04-24T03:19:03;12.30;99.90
38456;DHT22;24237;50.106;20.014;2023-04-24T03:21:29;12.30;99.90
38456;DHT22;24237;50.106;20.014;2023-04-24T03:23:55;12.30;99.90
38456;DHT22;24237;50.106;20.014;2023-04-24T03:26:20;12.40;99.90
38456;DHT22;24237;50.106;20.014;2023-04-24T03:28:46;12.40;99.90
38456;DHT22;24237;50.106;20.014;2023-04-24T03:31:11;12.40;99.90
38456;DHT22;24237;50.106;20.014;2023-04-24T03:33:37;12.50;99.90
38456;DHT22;24237;50.106;20.014;2023-04-24T03:36:03;12.50;99.90
38456;DHT22;24237;50.106;20.014;2023-04-24T03:38:30;12.60;99.90
38456;DHT22;24237;50.106;20.014;2023-04-24T03:40:56;12.50;99.90
38456;DHT22;24237;50.106;20.014;2023-04-24T03:43:21;12.60;99.90
38456;DHT22;24237;50.106;20.014;2023-04-24T03:45:47;12.60;99.90
38456;DHT22;24237;50.106;20.014;2023-04-24T03:48:12;12.60;99.90
38456;DHT22;24237;50.106;20.014;2023-04-24T03:50:38;12.70;99.90
38456;DHT22;24237;50.106;20.014;2023-04-24T03:53:03;12.70;99.90
38456;DHT22;24237;50.106;20.014;2023-04-24T03:55:29;12.70;99.90
38456;DHT22;24237;50.106;20.014;2023-04-24T03:57:55;12.70;99.90
38456;DHT22;24237;50.106;20.014;2023-04-24T04:00:20;12.70;99.90
38456;DHT22;24237;50.106;20.014;2023-04-24T04:02:46;12.90;99.90
38456;DHT22;24237;50.106;20.014;2023-04-24T04:05:12;12.80;99.90
38456;DHT22;24237;50.106;20.014;2023-04-24T04:07:37;12.80;99.90
38456;DHT22;24237;50.106;20.014;2023-04-24T04:10:03;12.80;99.90
38456;DHT22;24237;50.106;20.014;2023-04-24T04:12:33;12.70;99.90
38456;DHT22;24237;50.106;20.014;2023-04-24T04:14:58;12.80;99.90
38456;DHT22;24237;50.106;20.014;2023-04-24T04:17:24;12.80;99.90
38456;DHT22;24237;50.106;20.014;2023-04-24T04:19:50;12.90;99.90
38456;DHT22;24237;50.106;20.014;2023-04-24T04:22:16;13.00;99.90
38456;DHT22;24237;50.106;20.014;2023-04-24T04:24:41;13.10;99.90
38456;DHT22;24237;50.106;20.014;2023-04-24T04:27:09;13.20;99.90
38456;DHT22;24237;50.106;20.014;2023-04-24T04:29:34;13.40;99.90
38456;DHT22;24237;50.106;20.014;2023-04-24T04:35:23;13.40;99.90
38456;DHT22;24237;50.106;20.014;2023-04-24T04:37:49;13.70;99.90
38456;DHT22;24237;50.106;20.014;2023-04-24T04:40:14;14.20;99.90
38456;DHT22;24237;50.106;20.014;2023-04-24T04:42:40;14.40;99.90
38456;DHT22;24237;50.106;20.014;2023-04-24T04:45:08;14.30;99.90
38456;DHT22;24237;50.106;20.014;2023-04-24T04:47:34;14.30;99.90
38456;DHT22;24237;50.106;20.014;2023-04-24T04:50:00;14.40;99.90
38456;DHT22;24237;50.106;20.014;2023-04-24T04:52:26;14.40;99.90
38456;DHT22;24237;50.106;20.014;2023-04-24T04:54:52;14.40;99.90
38456;DHT22;24237;50.106;20.014;2023-04-24T04:57:18;14.40;99.90
38456;DHT22;24237;50.106;20.014;2023-04-24T04:59:43;14.50;99.90
38456;DHT22;24237;50.106;20.014;2023-04-24T05:02:09;14.80;99.90
38456;DHT22;24237;50.106;20.014;2023-04-24T05:04:34;15.40;99.90
38456;DHT22;24237;50.106;20.014;2023-04-24T05:07:00;15.80;99.90
38456;DHT22;24237;50.106;20.014;2023-04-24T05:09:26;15.80;99.90
38456;DHT22;24237;50.106;20.014;2023-04-24T05:11:53;15.80;99.90
38456;DHT22;24237;50.106;20.014;2023-04-24T05:14:19;15.70;99.90
38456;DHT22;24237;50.106;20.014;2023-04-24T05:16:44;15.60;99.90
38456;DHT22;24237;50.106;20.014;2023-04-24T05:19:10;15.70;99.90
38456;DHT22;24237;50.106;20.014;2023-04-24T05:21:40;15.70;99.90
38456;DHT22;24237;50.106;20.014;2023-04-24T05:24:06;16.00;99.90
38456;DHT22;24237;50.106;20.014;2023-04-24T05:26:32;16.20;99.80
38456;DHT22;24237;50.106;20.014;2023-04-24T05:28:57;16.20;99.90
38456;DHT22;24237;50.106;20.014;2023-04-24T05:31:23;16.20;99.70
38456;DHT22;24237;50.106;20.014;2023-04-24T05:33:48;16.20;99.40
38456;DHT22;24237;50.106;20.014;2023-04-24T05:39:36;16.50;99.30
38456;DHT22;24237;50.106;20.014;2023-04-24T05:42:02;16.50;99.50
38456;DHT22;24237;50.106;20.014;2023-04-24T05:44:29;16.50;99.70
38456;DHT22;24237;50.106;20.014;2023-04-24T05:46:55;16.60;99.60
38456;DHT22;24237;50.106;20.014;2023-04-24T05:49:21;16.90;98.80
38456;DHT22;24237;50.106;20.014;2023-04-24T05:51:46;17.10;98.30
38456;DHT22;24237;50.106;20.014;2023-04-24T05:54:12;17.10;97.90
38456;DHT22;24237;50.106;20.014;2023-04-24T05:56:38;17.30;98.10
38456;DHT22;24237;50.106;20.014;2023-04-24T05:59:04;17.40;98.30
38456;DHT22;24237;50.106;20.014;2023-04-24T06:01:30;17.30;98.90
38456;DHT22;24237;50.106;20.014;2023-04-24T06:03:56;17.30;99.10
38456;DHT22;24237;50.106;20.014;2023-04-24T06:06:23;17.30;99.50
38456;DHT22;24237;50.106;20.014;2023-04-24T06:08:49;17.40;99.50
38456;DHT22;24237;50.106;20.014;2023-04-24T06:11:15;17.60;99.60
38456;DHT22;24237;50.106;20.014;2023-04-24T06:13:41;17.70;99.30
38456;DHT22;24237;50.106;20.014;2023-04-24T06:16:07;17.70;98.70
38456;DHT22;24237;50.106;20.014;2023-04-24T06:18:32;17.70;98.00
38456;DHT22;24237;50.106;20.014;2023-04-24T06:20:58;17.70;97.70
38456;DHT22;24237;50.106;20.014;2023-04-24T06:23:23;18.10;97.70
38456;DHT22;24237;50.106;20.014;2023-04-24T06:25:49;18.30;96.90
38456;DHT22;24237;50.106;20.014;2023-04-24T06:28:15;18.30;97.00
38456;DHT22;24237;50.106;20.014;2023-04-24T06:30:41;18.20;96.70
38456;DHT22;24237;50.106;20.014;2023-04-24T06:33:06;18.60;96.40
38456;DHT22;24237;50.106;20.014;2023-04-24T06:35:32;18.40;96.20
38456;DHT22;24237;50.106;20.014;2023-04-24T06:37:58;18.40;96.20
38456;DHT22;24237;50.106;20.014;2023-04-24T06:40:23;18.60;96.00
38456;DHT22;24237;50.106;20.014;2023-04-24T06:42:49;18.80;95.40
38456;DHT22;24237;50.106;20.014;2023-04-24T06:45:15;18.90;94.90
38456;DHT22;24237;50.106;20.014;2023-04-24T06:47:41;19.10;94.90
38456;DHT22;24237;50.106;20.014;2023-04-24T06:50:07;19.40;94.60
38456;DHT22;24237;50.106;20.014;2023-04-24T06:52:32;19.60;94.00
38456;DHT22;24237;50.106;20.014;2023-04-24T06:55:02;19.80;93.30
38456;DHT22;24237;50.106;20.014;2023-04-24T06:57:28;20.10;92.60
38456;DHT22;24237;50.106;20.014;2023-04-24T06:59:54;19.90;92.40
38456;DHT22;24237;50.106;20.014;2023-04-24T07:02:20;20.10;91.90
38456;DHT22;24237;50.106;20.014;2023-04-24T07:04:45;19.80;91.70
38456;DHT22;24237;50.106;20.014;2023-04-24T07:07:12;20.00;92.30
38456;DHT22;24237;50.106;20.014;2023-04-24T07:09:39;20.10;92.40
38456;DHT22;24237;50.106;20.014;2023-04-24T07:12:06;20.30;92.40
38456;DHT22;24237;50.106;20.014;2023-04-24T07:14:32;20.70;90.00
38456;DHT22;24237;50.106;20.014;2023-04-24T07:16:58;20.60;88.00
38456;DHT22;24237;50.106;20.014;2023-04-24T07:19:24;20.60;87.80
38456;DHT22;24237;50.106;20.014;2023-04-24T07:21:49;20.90;85.80
38456;DHT22;24237;50.106;20.014;2023-04-24T07:24:15;21.10;84.70
38456;DHT22;24237;50.106;20.014;2023-04-24T07:26:41;21.20;84.80
38456;DHT22;24237;50.106;20.014;2023-04-24T07:29:07;21.30;84.10
38456;DHT22;24237;50.106;20.014;2023-04-24T07:31:32;21.40;82.40
38456;DHT22;24237;50.106;20.014;2023-04-24T07:33:58;21.00;82.40
38456;DHT22;24237;50.106;20.014;2023-04-24T07:36:24;21.30;82.40
38456;DHT22;24237;50.106;20.014;2023-04-24T07:38:51;21.50;81.70
38456;DHT22;24237;50.106;20.014;2023-04-24T07:41:17;21.70;79.30
38456;DHT22;24237;50.106;20.014;2023-04-24T07:43:44;21.70;78.10
38456;DHT22;24237;50.106;20.014;2023-04-24T07:46:09;21.40;78.30
38456;DHT22;24237;50.106;20.014;2023-04-24T07:48:35;21.40;78.70
38456;DHT22;24237;50.106;20.014;2023-04-24T07:51:01;21.70;77.20
38456;DHT22;24237;50.106;20.014;2023-04-24T07:53:27;21.90;76.80
38456;DHT22;24237;50.106;20.014;2023-04-24T07:55:54;21.90;74.90
38456;DHT22;24237;50.106;20.014;2023-04-24T07:58:20;22.00;74.00
38456;DHT22;24237;50.106;20.014;2023-04-24T08:00:46;22.20;74.00
38456;DHT22;24237;50.106;20.014;2023-04-24T08:03:12;22.40;74.20
38456;DHT22;24237;50.106;20.014;2023-04-24T08:05:38;22.70;75.60
38456;DHT22;24237;50.106;20.014;2023-04-24T08:08:04;22.30;73.80
38456;DHT22;24237;50.106;20.014;2023-04-24T08:10:30;22.20;74.40
38456;DHT22;24237;50.106;20.014;2023-04-24T08:12:55;22.30;74.90
38456;DHT22;24237;50.106;20.014;2023-04-24T08:15:21;22.30;75.10
38456;DHT22;24237;50.106;20.014;2023-04-24T08:17:47;22.40;73.40
38456;DHT22;24237;50.106;20.014;2023-04-24T08:20:13;22.80;72.40
38456;DHT22;24237;50.106;20.014;2023-04-24T08:22:42;22.90;72.10
38456;DHT22;24237;50.106;20.014;2023-04-24T08:25:09;23.40;69.90
38456;DHT22;24237;50.106;20.014;2023-04-24T08:27:36;23.30;68.00
38456;DHT22;24237;50.106;20.014;2023-04-24T08:30:05;23.10;68.00
38456;DHT22;24237;50.106;20.014;2023-04-24T08:32:31;23.30;68.50
38456;DHT22;24237;50.106;20.014;2023-04-24T08:34:57;23.60;69.00
38456;DHT22;24237;50.106;20.014;2023-04-24T08:37:23;23.50;69.30
38456;DHT22;24237;50.106;20.014;2023-04-24T08:39:49;23.30;70.10
38456;DHT22;24237;50.106;20.014;2023-04-24T08:42:17;23.60;69.10
38456;DHT22;24237;50.106;20.014;2023-04-24T08:44:43;23.80;69.00
38456;DHT22;24237;50.106;20.014;2023-04-24T08:47:10;24.10;67.30
38456;DHT22;24237;50.106;20.014;2023-04-24T08:49:37;24.20;66.50
38456;DHT22;24237;50.106;20.014;2023-04-24T08:52:05;24.30;65.00
38456;DHT22;24237;50.106;20.014;2023-04-24T08:54:31;24.00;64.90
38456;DHT22;24237;50.106;20.014;2023-04-24T08:56:59;23.70;63.90
38456;DHT22;24237;50.106;20.014;2023-04-24T08:59:27;23.40;64.90
38456;DHT22;24237;50.106;20.014;2023-04-24T09:01:55;23.60;65.10
38456;DHT22;24237;50.106;20.014;2023-04-24T09:04:22;23.70;62.80
38456;DHT22;24237;50.106;20.014;2023-04-24T09:06:50;23.80;61.90
38456;DHT22;24237;50.106;20.014;2023-04-24T09:09:16;23.70;62.90
38456;DHT22;24237;50.106;20.014;2023-04-24T09:11:43;23.80;63.80
38456;DHT22;24237;50.106;20.014;2023-04-24T09:14:10;24.00;63.00
38456;DHT22;24237;50.106;20.014;2023-04-24T09:16:36;24.00;62.40
38456;DHT22;24237;50.106;20.014;2023-04-24T09:19:02;23.50;59.90
38456;DHT22;24237;50.106;20.014;2023-04-24T09:21:32;23.50;63.40
38456;DHT22;24237;50.106;20.014;2023-04-24T09:24:03;23.40;61.70
38456;DHT22;24237;50.106;20.014;2023-04-24T09:26:30;23.30;60.70
38456;DHT22;24237;50.106;20.014;2023-04-24T09:28:57;23.10;59.90
38456;DHT22;24237;50.106;20.014;2023-04-24T09:31:23;22.90;60.10
38456;DHT22;24237;50.106;20.014;2023-04-24T09:34:00;22.80;60.90
38456;DHT22;24237;50.106;20.014;2023-04-24T09:36:40;23.10;60.50
38456;DHT22;24237;50.106;20.014;2023-04-24T09:39:10;23.20;60.40
38456;DHT22;24237;50.106;20.014;2023-04-24T09:42:02;23.70;60.60
38456;DHT22;24237;50.106;20.014;2023-04-24T09:44:28;23.90;60.20
38456;DHT22;24237;50.106;20.014;2023-04-24T09:46:58;23.70;59.30
38456;DHT22;24237;50.106;20.014;2023-04-24T09:49:29;23.80;59.50
38456;DHT22;24237;50.106;20.014;2023-04-24T09:52:09;24.00;59.50
38456;DHT22;24237;50.106;20.014;2023-04-24T09:54:36;24.40;59.60
38456;DHT22;24237;50.106;20.014;2023-04-24T09:57:06;24.70;61.60
38456;DHT22;24237;50.106;20.014;2023-04-24T09:59:32;24.80;60.60
38456;DHT22;24237;50.106;20.014;2023-04-24T10:01:59;24.60;60.80
38456;DHT22;24237;50.106;20.014;2023-04-24T10:04:27;24.30;61.60
38456;DHT22;24237;50.106;20.014;2023-04-24T10:06:55;24.60;60.90
38456;DHT22;24237;50.106;20.014;2023-04-24T10:09:22;24.60;60.10
38456;DHT22;24237;50.106;20.014;2023-04-24T10:11:49;24.40;59.60
38456;DHT22;24237;50.106;20.014;2023-04-24T10:14:19;24.40;57.90
38456;DHT22;24237;50.106;20.014;2023-04-24T10:16:46;24.60;58.50
38456;DHT22;24237;50.106;20.014;2023-04-24T10:19:15;24.90;58.00
38456;DHT22;24237;50.106;20.014;2023-04-24T10:21:43;25.00;58.30
38456;DHT22;24237;50.106;20.014;2023-04-24T10:24:15;25.10;58.20
38456;DHT22;24237;50.106;20.014;2023-04-24T10:26:41;25.30;58.70
38456;DHT22;24237;50.106;20.014;2023-04-24T10:29:07;25.50;59.50
38456;DHT22;24237;50.106;20.014;2023-04-24T10:31:36;25.70;57.00
38456;DHT22;24237;50.106;20.014;2023-04-24T10:34:02;25.40;56.30
38456;DHT22;24237;50.106;20.014;2023-04-24T10:36:29;25.40;57.30
38456;DHT22;24237;50.106;20.014;2023-04-24T10:38:59;25.50;56.30
38456;DHT22;24237;50.106;20.014;2023-04-24T10:41:26;25.30;56.00
38456;DHT22;24237;50.106;20.014;2023-04-24T10:44:24;25.40;57.70
38456;DHT22;24237;50.106;20.014;2023-04-24T10:46:53;25.90;56.10
38456;DHT22;24237;50.106;20.014;2023-04-24T10:52:47;25.80;57.30
38456;DHT22;24237;50.106;20.014;2023-04-24T10:55:13;25.50;57.30
38456;DHT22;24237;50.106;20.014;2023-04-24T10:58:03;25.20;57.30
38456;DHT22;24237;50.106;20.014;2023-04-24T11:00:30;25.30;56.70
38456;DHT22;24237;50.106;20.014;2023-04-24T11:02:56;25.70;56.50
38456;DHT22;24237;50.106;20.014;2023-04-24T11:05:23;26.30;55.00
38456;DHT22;24237;50.106;20.014;2023-04-24T11:08:15;26.50;54.60
38456;DHT22;24237;50.106;20.014;2023-04-24T11:10:46;26.40;54.00
38456;DHT22;24237;50.106;20.014;2023-04-24T11:13:16;26.30;54.70
38456;DHT22;24237;50.106;20.014;2023-04-24T11:15:42;26.00;54.00
38456;DHT22;24237;50.106;20.014;2023-04-24T11:18:14;25.70;55.20
38456;DHT22;24237;50.106;20.014;2023-04-24T11:20:44;25.90;56.50
38456;DHT22;24237;50.106;20.014;2023-04-24T11:23:12;26.10;55.70
38456;DHT22;24237;50.106;20.014;2023-04-24T11:25:38;26.10;55.30
38456;DHT22;24237;50.106;20.014;2023-04-24T11:28:05;26.10;55.30
38456;DHT22;24237;50.106;20.014;2023-04-24T11:30:31;26.40;54.40
38456;DHT22;24237;50.106;20.014;2023-04-24T11:33:03;26.20;55.20
38456;DHT22;24237;50.106;20.014;2023-04-24T11:35:29;26.10;54.10
38456;DHT22;24237;50.106;20.014;2023-04-24T11:38:00;25.80;55.20
38456;DHT22;24237;50.106;20.014;2023-04-24T11:40:28;26.00;54.80
38456;DHT22;24237;50.106;20.014;2023-04-24T11:42:54;26.30;55.80
38456;DHT22;24237;50.106;20.014;2023-04-24T11:45:26;26.70;54.60
38456;DHT22;24237;50.106;20.014;2023-04-24T11:47:52;26.80;54.70
38456;DHT22;24237;50.106;20.014;2023-04-24T11:50:23;26.60;54.20
38456;DHT22;24237;50.106;20.014;2023-04-24T11:52:51;26.50;54.40
38456;DHT22;24237;50.106;20.014;2023-04-24T11:57:44;26.90;55.00
38456;DHT22;24237;50.106;20.014;2023-04-24T12:00:31;26.90;55.60
38456;DHT22;24237;50.106;20.014;2023-04-24T12:03:10;26.90;55.20
38456;DHT22;24237;50.106;20.014;2023-04-24T12:05:37;26.80;54.80
38456;DHT22;24237;50.106;20.014;2023-04-24T12:08:04;26.60;54.60
38456;DHT22;24237;50.106;20.014;2023-04-24T12:10:31;26.90;54.00
38456;DHT22;24237;50.106;20.014;2023-04-24T12:12:58;27.60;54.60
38456;DHT22;24237;50.106;20.014;2023-04-24T12:15:25;27.00;53.50
38456;DHT22;24237;50.106;20.014;2023-04-24T12:17:53;26.70;53.70
38456;DHT22;24237;50.106;20.014;2023-04-24T12:20:23;26.50;54.20
38456;DHT22;24237;50.106;20.014;2023-04-24T12:22:54;26.70;54.20
38456;DHT22;24237;50.106;20.014;2023-04-24T12:25:22;26.90;54.50
38456;DHT22;24237;50.106;20.014;2023-04-24T12:30:26;26.40;54.40
38456;DHT22;24237;50.106;20.014;2023-04-24T12:32:53;26.30;55.00
38456;DHT22;24237;50.106;20.014;2023-04-24T12:35:22;26.30;54.60
38456;DHT22;24237;50.106;20.014;2023-04-24T12:37:49;26.40;55.10
38456;DHT22;24237;50.106;20.014;2023-04-24T12:40:17;26.40;55.20
38456;DHT22;24237;50.106;20.014;2023-04-24T12:42:47;26.20;55.70
38456;DHT22;24237;50.106;20.014;2023-04-24T12:45:14;25.80;56.00
38456;DHT22;24237;50.106;20.014;2023-04-24T12:47:44;25.50;56.20
38456;DHT22;24237;50.106;20.014;2023-04-24T12:50:12;25.30;56.00
38456;DHT22;24237;50.106;20.014;2023-04-24T12:52:38;25.30;55.90
38456;DHT22;24237;50.106;20.014;2023-04-24T12:55:05;25.10;56.10
38456;DHT22;24237;50.106;20.014;2023-04-24T12:57:33;25.10;55.60
38456;DHT22;24237;50.106;20.014;2023-04-24T13:00:00;25.00;55.90
38456;DHT22;24237;50.106;20.014;2023-04-24T13:02:28;24.90;56.60
38456;DHT22;24237;50.106;20.014;2023-04-24T13:04:57;25.10;55.80
38456;DHT22;24237;50.106;20.014;2023-04-24T13:07:24;24.90;59.90
38456;DHT22;24237;50.106;20.014;2023-04-24T13:09:50;24.30;62.60
38456;DHT22;24237;50.106;20.014;2023-04-24T13:12:17;23.50;64.60
38456;DHT22;24237;50.106;20.014;2023-04-24T13:14:43;23.20;65.80
38456;DHT22;24237;50.106;20.014;2023-04-24T13:17:09;22.40;67.00
38456;DHT22;24237;50.106;20.014;2023-04-24T13:19:41;21.90;68.60
38456;DHT22;24237;50.106;20.014;2023-04-24T13:22:08;21.60;69.80
38456;DHT22;24237;50.106;20.014;2023-04-24T13:24:34;21.20;71.00
38456;DHT22;24237;50.106;20.014;2023-04-24T13:27:00;20.70;72.70
38456;DHT22;24237;50.106;20.014;2023-04-24T13:29:26;20.70;73.60
38456;DHT22;24237;50.106;20.014;2023-04-24T13:31:53;20.60;74.70
38456;DHT22;24237;50.106;20.014;2023-04-24T13:34:23;20.60;75.80
38456;DHT22;24237;50.106;20.014;2023-04-24T13:36:54;20.50;77.60
38456;DHT22;24237;50.106;20.014;2023-04-24T13:39:21;20.40;77.90
38456;DHT22;24237;50.106;20.014;2023-04-24T13:41:46;20.50;77.40
38456;DHT22;24237;50.106;20.014;2023-04-24T13:44:14;20.30;78.30
38456;DHT22;24237;50.106;20.014;2023-04-24T13:46:40;20.40;78.50
38456;DHT22;24237;50.106;20.014;2023-04-24T13:49:06;20.60;78.00
38456;DHT22;24237;50.106;20.014;2023-04-24T13:51:32;20.70;77.90
38456;DHT22;24237;50.106;20.014;2023-04-24T13:53:58;20.80;77.30
38456;DHT22;24237;50.106;20.014;2023-04-24T13:56:25;20.80;76.90
38456;DHT22;24237;50.106;20.014;2023-04-24T13:58:51;20.60;76.10
38456;DHT22;24237;50.106;20.014;2023-04-24T14:01:16;20.60;76.00
38456;DHT22;24237;50.106;20.014;2023-04-24T14:03:42;20.50;74.50
38456;DHT22;24237;50.106;20.014;2023-04-24T14:06:11;20.40;74.90
38456;DHT22;24237;50.106;20.014;2023-04-24T14:08:36;20.40;75.30
38456;DHT22;24237;50.106;20.014;2023-04-24T14:11:02;20.40;75.00
38456;DHT22;24237;50.106;20.014;2023-04-24T14:13:28;20.40;75.00
38456;DHT22;24237;50.106;20.014;2023-04-24T14:15:54;20.50;75.40
38456;DHT22;24237;50.106;20.014;2023-04-24T14:18:20;20.30;76.00
38456;DHT22;24237;50.106;20.014;2023-04-24T14:20:45;20.40;75.40
38456;DHT22;24237;50.106;20.014;2023-04-24T14:23:11;20.50;75.10
38456;DHT22;24237;50.106;20.014;2023-04-24T14:25:37;20.50;75.50
38456;DHT22;24237;50.106;20.014;2023-04-24T14:28:03;20.60;75.70
38456;DHT22;24237;50.106;20.014;2023-04-24T14:30:28;20.70;76.20
38456;DHT22;24237;50.106;20.014;2023-04-24T14:32:54;20.90;76.30
38456;DHT22;24237;50.106;20.014;2023-04-24T14:35:20;20.80;75.80
38456;DHT22;24237;50.106;20.014;2023-04-24T14:37:45;21.00;75.70
38456;DHT22;24237;50.106;20.014;2023-04-24T14:40:11;21.10;75.40
38456;DHT22;24237;50.106;20.014;2023-04-24T14:42:36;21.20;75.20
38456;DHT22;24237;50.106;20.014;2023-04-24T14:45:02;21.00;75.70
38456;DHT22;24237;50.106;20.014;2023-04-24T14:47:28;21.10;75.50
38456;DHT22;24237;50.106;20.014;2023-04-24T14:49:54;21.10;75.40
38456;DHT22;24237;50.106;20.014;2023-04-24T14:52:20;21.00;75.30
38456;DHT22;24237;50.106;20.014;2023-04-24T14:54:46;21.10;75.80
38456;DHT22;24237;50.106;20.014;2023-04-24T14:57:11;20.90;76.10
38456;DHT22;24237;50.106;20.014;2023-04-24T14:59:37;21.10;76.50
38456;DHT22;24237;50.106;20.014;2023-04-24T15:02:02;21.20;76.90
38456;DHT22;24237;50.106;20.014;2023-04-24T15:04:29;21.10;77.40
38456;DHT22;24237;50.106;20.014;2023-04-24T15:06:56;21.00;77.90
38456;DHT22;24237;50.106;20.014;2023-04-24T15:09:22;21.10;77.90
38456;DHT22;24237;50.106;20.014;2023-04-24T15:11:49;20.90;77.90
38456;DHT22;24237;50.106;20.014;2023-04-24T15:14:15;21.10;78.80
38456;DHT22;24237;50.106;20.014;2023-04-24T15:16:41;21.00;78.50
38456;DHT22;24237;50.106;20.014;2023-04-24T15:19:07;21.00;79.50
38456;DHT22;24237;50.106;20.014;2023-04-24T15:21:33;21.00;78.40
38456;DHT22;24237;50.106;20.014;2023-04-24T15:23:59;21.00;78.70
38456;DHT22;24237;50.106;20.014;2023-04-24T15:26:24;20.90;78.60
38456;DHT22;24237;50.106;20.014;2023-04-24T15:28:51;21.20;78.20